GRZ522 Details

Departure: Adak Airport (PADK)
Arrival: Eareckson Air Station (PASY)
Route: ADK J115 SYA
Notes: USTRANSCOM CONTRACT FLIGHT


Current Weather Information
PADK 252336Z AUTO 23030G36KT 10SM -RA FEW020 SCT025 BKN033 04/01 A2942 RMK AO2 PK WND 25037/2325 RAB24 P0000
PASY 252259Z 25028G38KT 7SM FEW035 FEW050 01/M05 A2907 RMK PK WND 24040/2256 SLP846 RVRNO FZRANO $